Time;durP1;ratioP1;P1;durP2;ratioP2;P2;SDS_P1;SDS_P2;PMS_P1;PMS_P2;Temp;Humidity;BMP_temperature;BMP_pressure;BME280_temperature;BME280_humidity;BME280_pressure;Samples;Min_cycle;Max_cycle;Signal;HPM_P1;HPM_P2
2023/01/03 00:00:47;;;;;;;1.65;1.55;;;;;10.90;97235.00;;;;8304258;28;20248;-76
2023/01/03 00:04:57;;;;;;;2.03;1.40;;;;;10.90;97228.00;;;;8304480;28;20257;-76
2023/01/03 00:09:07;;;;;;;2.20;1.60;;;;;10.90;97242.00;;;;8304068;28;20221;-76
2023/01/03 00:13:43;;;;;;;2.30;1.60;;;;;10.90;97226.00;;;;8304144;28;20197;-75
2023/01/03 00:17:46;;;;;;;1.60;1.50;;;;;10.80;97209.00;;;;8302287;28;20206;-75
2023/01/03 00:21:51;;;;;;;1.40;1.40;;;;;10.80;97208.00;;;;8303091;28;20202;-75
2023/01/03 00:26:24;;;;;;;1.40;1.40;;;;;10.70;97202.00;;;;8303464;28;20240;-75
2023/01/03 00:30:33;;;;;;;2.20;2.00;;;;;10.70;97228.00;;;;8300838;28;20190;-75
2023/01/03 00:34:36;;;;;;;2.30;1.95;;;;;10.70;97233.00;;;;8303570;28;20218;-75
2023/01/03 00:38:41;;;;;;;1.80;1.60;;;;;10.70;97257.00;;;;8303830;28;20198;-75
2023/01/03 00:47:04;;;;;;;3.42;1.83;;;;;10.70;97257.00;;;;8301041;28;20269;-75
2023/01/03 00:51:11;;;;;;;2.10;1.70;;;;;10.60;97253.00;;;;8301792;28;20205;-75
2023/01/03 00:55:16;;;;;;;1.80;1.70;;;;;10.60;97259.00;;;;8302550;28;20226;-75
2023/01/03 00:59:21;;;;;;;1.90;1.80;;;;;10.50;97258.00;;;;8302791;28;20701;-76
2023/01/03 01:03:27;;;;;;;2.38;1.90;;;;;10.50;97232.00;;;;8302699;28;20260;-76
2023/01/03 01:07:30;;;;;;;2.10;1.60;;;;;10.50;97248.00;;;;8301968;28;20543;-76
2023/01/03 01:11:35;;;;;;;3.05;2.00;;;;;10.40;97245.00;;;;8301460;28;20194;-75
2023/01/03 01:20:42;;;;;;;3.05;2.10;;;;;10.20;97244.00;;;;8302184;28;20194;-76
2023/01/03 01:24:45;;;;;;;2.75;1.73;;;;;10.10;97249.00;;;;8301914;28;20205;-75
2023/01/03 01:29:22;;;;;;;1.98;1.88;;;;;10.10;97257.00;;;;8296770;28;20198;-76
2023/01/03 01:33:27;;;;;;;1.90;1.80;;;;;10.00;97270.00;;;;8300520;28;20237;-76
2023/01/03 01:37:31;;;;;;;1.75;1.65;;;;;10.00;97282.00;;;;8301838;28;20222;-76
2023/01/03 01:45:58;;;;;;;2.22;2.10;;;;;9.90;97294.00;;;;8278208;28;20594;-75
2023/01/03 01:50:15;;;;;;;2.13;2.00;;;;;9.90;97298.00;;;;8301091;28;20508;-75
2023/01/03 01:54:19;;;;;;;1.80;1.75;;;;;9.80;97291.00;;;;8299185;28;20256;-75
2023/01/03 01:58:26;;;;;;;2.20;2.10;;;;;9.80;97315.00;;;;8301338;28;20334;-75
2023/01/03 02:02:30;;;;;;;2.42;2.22;;;;;9.70;97307.00;;;;8300033;28;20583;-75
2023/01/03 02:07:05;;;;;;;2.42;2.22;;;;;9.70;97311.00;;;;8301613;28;20196;-75
2023/01/03 02:11:23;;;;;;;2.45;2.00;;;;;9.60;97317.00;;;;8298655;28;20197;-76
2023/01/03 02:15:47;;;;;;;2.15;2.05;;;;;9.50;97313.00;;;;8300115;28;20937;-76
2023/01/03 02:20:08;;;;;;;2.22;2.00;;;;;9.50;97313.00;;;;8300948;28;20202;-76
2023/01/03 02:24:42;;;;;;;4.22;2.40;;;;;9.50;97313.00;;;;8294600;28;20198;-75
2023/01/03 02:29:27;;;;;;;2.50;2.30;;;;;9.40;97317.00;;;;8299275;28;20190;-75
2023/01/03 02:33:53;;;;;;;3.07;2.00;;;;;9.40;97319.00;;;;8298017;28;20206;-76
2023/01/03 02:38:00;;;;;;;3.30;2.50;;;;;9.40;97318.00;;;;8299761;28;20281;-76
2023/01/03 02:46:37;;;;;;;2.38;2.25;;;;;9.40;97313.00;;;;8298224;28;20611;-76
2023/01/03 02:50:46;;;;;;;2.22;2.13;;;;;9.40;97305.00;;;;8300091;28;20248;-76
2023/01/03 02:55:22;;;;;;;2.58;2.38;;;;;9.30;97304.00;;;;8299182;28;20202;-76
2023/01/03 02:59:31;;;;;;;2.33;2.20;;;;;9.30;97317.00;;;;8299328;28;20194;-75
2023/01/03 03:03:37;;;;;;;2.28;2.17;;;;;9.30;97314.00;;;;8319005;23;20229;-76
2023/01/03 03:07:42;;;;;;;3.38;2.38;;;;;9.30;97317.00;;;;8294947;28;20907;-75
2023/01/03 03:16:19;;;;;;;2.50;2.35;;;;;9.30;97315.00;;;;8292949;28;20230;-76
2023/01/03 03:25:13;;;;;;;2.65;2.53;;;;;9.30;97317.00;;;;8296861;28;20204;-76
2023/01/03 03:29:18;;;;;;;2.75;2.55;;;;;9.30;97325.00;;;;8297351;28;20198;-76
2023/01/03 03:33:25;;;;;;;2.13;2.03;;;;;9.30;97329.00;;;;8292931;28;20933;-76
2023/01/03 03:37:34;;;;;;;2.53;2.43;;;;;9.30;97331.00;;;;8288420;28;20841;-76
2023/01/03 03:46:12;;;;;;;2.93;2.40;;;;;9.10;97324.00;;;;8294805;28;20249;-76
2023/01/03 03:50:22;;;;;;;3.30;2.40;;;;;9.10;97330.00;;;;8299243;28;20819;-76
2023/01/03 03:54:28;;;;;;;2.30;2.20;;;;;9.10;97325.00;;;;8289030;28;20201;-76
2023/01/03 03:58:49;;;;;;;2.53;2.33;;;;;9.00;97334.00;;;;8298554;28;20233;-76
2023/01/03 04:02:55;;;;;;;2.30;2.17;;;;;8.90;97335.00;;;;8286977;28;20313;-75
2023/01/03 04:07:01;;;;;;;2.40;2.30;;;;;8.70;97330.00;;;;8272341;28;20635;-75
2023/01/03 04:11:06;;;;;;;2.83;2.60;;;;;8.50;97331.00;;;;8275345;28;20216;-75
2023/01/03 04:15:11;;;;;;;2.77;2.63;;;;;8.40;97330.00;;;;8275364;28;20694;-76
2023/01/03 04:19:14;;;;;;;3.67;2.30;;;;;8.30;97338.00;;;;8273824;28;20640;-75
2023/01/03 04:23:17;;;;;;;2.78;2.58;;;;;8.20;97342.00;;;;8275627;28;20206;-76
2023/01/03 04:27:24;;;;;;;2.50;2.40;;;;;8.10;97342.00;;;;8271479;28;20199;-76
2023/01/03 04:31:31;;;;;;;2.30;2.20;;;;;8.10;97342.00;;;;8276554;28;20194;-76
2023/01/03 04:35:34;;;;;;;2.70;2.50;;;;;8.00;97346.00;;;;8277627;28;20958;-76
2023/01/03 04:39:37;;;;;;;5.67;3.00;;;;;7.90;97344.00;;;;8279389;28;20206;-76
2023/01/03 04:44:05;;;;;;;2.60;2.40;;;;;7.80;97347.00;;;;8281886;28;20647;-76
2023/01/03 04:48:11;;;;;;;2.73;2.57;;;;;7.70;97351.00;;;;8272241;28;20639;-76
2023/01/03 04:52:14;;;;;;;4.57;2.90;;;;;7.70;97354.00;;;;8274726;28;20252;-76
2023/01/03 04:56:29;;;;;;;3.27;3.00;;;;;7.70;97347.00;;;;8281491;28;20313;-76
2023/01/03 05:00:32;;;;;;;2.93;2.70;;;;;7.60;97346.00;;;;8276028;28;20265;-76
2023/01/03 05:04:37;;;;;;;3.27;2.97;;;;;7.50;97353.00;;;;8282185;28;20292;-76
2023/01/03 05:08:41;;;;;;;5.57;3.50;;;;;7.40;97365.00;;;;8277098;28;20619;-75
2023/01/03 05:12:58;;;;;;;4.00;3.60;;;;;7.40;97367.00;;;;8275177;28;20607;-77
2023/01/03 05:17:02;;;;;;;5.93;3.93;;;;;7.30;97365.00;;;;8271916;28;20269;-77
2023/01/03 05:25:50;;;;;;;5.40;3.93;;;;;7.20;97375.00;;;;8274143;28;20289;-75
2023/01/03 05:29:55;;;;;;;3.93;3.27;;;;;7.10;97369.00;;;;8272767;28;20234;-77
2023/01/03 05:33:59;;;;;;;3.97;3.30;;;;;7.10;97368.00;;;;8273237;28;20229;-78
2023/01/03 05:38:05;;;;;;;6.53;3.80;;;;;7.10;97369.00;;;;8275063;28;20740;-79
2023/01/03 05:42:10;;;;;;;3.80;3.20;;;;;7.20;97391.00;;;;8267177;28;20758;-78
2023/01/03 05:46:13;;;;;;;5.53;3.67;;;;;7.20;97396.00;;;;8276663;28;20698;-78
2023/01/03 05:50:17;;;;;;;5.00;3.93;;;;;7.30;97399.00;;;;8279179;28;20202;-78
2023/01/03 05:54:23;;;;;;;4.73;3.77;;;;;7.30;97391.00;;;;8289914;28;20199;-78
2023/01/03 05:58:26;;;;;;;4.07;3.60;;;;;7.30;97395.00;;;;8295641;28;20249;-78
2023/01/03 06:02:34;;;;;;;5.03;3.70;;;;;7.40;97401.00;;;;8296595;28;20234;-78
2023/01/03 06:07:11;;;;;;;7.90;4.00;;;;;7.40;97392.00;;;;8295854;28;20204;-78
2023/01/03 06:11:18;;;;;;;4.83;4.00;;;;;7.40;97392.00;;;;8296686;28;20217;-77
2023/01/03 06:15:21;;;;;;;4.60;3.80;;;;;7.40;97405.00;;;;8295773;28;20194;-77
2023/01/03 06:19:30;;;;;;;6.43;3.63;;;;;7.40;97408.00;;;;8295447;28;20265;-77
2023/01/03 06:24:00;;;;;;;6.57;4.10;;;;;7.30;97409.00;;;;8294950;28;20228;-77
2023/01/03 06:28:05;;;;;;;5.33;3.80;;;;;7.20;97409.00;;;;8295149;28;20198;-77
2023/01/03 06:32:08;;;;;;;4.20;3.80;;;;;7.10;97410.00;;;;8294977;28;20208;-77
2023/01/03 06:36:46;;;;;;;6.67;3.40;;;;;6.90;97417.00;;;;8295289;28;20659;-78
2023/01/03 06:40:50;;;;;;;4.67;3.50;;;;;6.80;97414.00;;;;8294045;28;20709;-77
2023/01/03 06:53:43;;;;;;;5.80;4.30;;;;;6.10;97419.00;;;;8294249;28;20201;-77
2023/01/03 06:57:46;;;;;;;5.07;4.20;;;;;6.10;97419.00;;;;8294271;28;20221;-77
2023/01/03 07:01:55;;;;;;;6.87;3.53;;;;;6.00;97428.00;;;;8292932;28;20218;-77
2023/01/03 07:06:01;;;;;;;8.50;3.97;;;;;6.00;97425.00;;;;8294888;28;20661;-77
2023/01/03 07:10:04;;;;;;;7.97;4.33;;;;;5.90;97427.00;;;;8294244;28;20240;-77
2023/01/03 07:14:09;;;;;;;6.13;4.47;;;;;5.90;97437.00;;;;8294357;28;20205;-77
2023/01/03 07:18:17;;;;;;;5.33;4.23;;;;;5.80;97432.00;;;;8293134;28;20237;-77
2023/01/03 07:22:22;;;;;;;5.10;3.90;;;;;5.70;97431.00;;;;8294351;28;20320;-77
2023/01/03 07:26:26;;;;;;;6.77;4.67;;;;;5.60;97439.00;;;;8293768;28;20543;-77
2023/01/03 07:31:03;;;;;;;6.43;4.97;;;;;5.60;97449.00;;;;8294327;28;20202;-77
2023/01/03 07:35:08;;;;;;;7.60;5.13;;;;;5.50;97463.00;;;;8294136;28;20675;-77
2023/01/03 07:39:13;;;;;;;8.67;5.70;;;;;5.40;97471.00;;;;8294143;28;20222;-77
2023/01/03 07:47:47;;;;;;;7.03;5.13;;;;;5.60;97473.00;;;;8293375;28;20206;-78
2023/01/03 07:51:51;;;;;;;9.50;5.47;;;;;5.70;97471.00;;;;8298021;28;20198;-78
2023/01/03 07:56:00;;;;;;;9.80;5.43;;;;;5.70;97477.00;;;;8298278;28;20198;-78
2023/01/03 08:00:29;;;;;;;7.50;5.53;;;;;5.70;97480.00;;;;8298038;28;20256;-77
2023/01/03 08:04:32;;;;;;;12.17;6.20;;;;;5.70;97489.00;;;;8299492;28;20261;-77
2023/01/03 08:08:39;;;;;;;9.90;5.97;;;;;5.70;97487.00;;;;8303531;28;20194;-78
2023/01/03 08:17:20;;;;;;;12.07;6.80;;;;;5.90;97498.00;;;;8304508;28;20210;-78
2023/01/03 08:21:24;;;;;;;10.83;6.90;;;;;5.90;97491.00;;;;8303888;28;20198;-78
2023/01/03 08:25:29;;;;;;;11.47;7.50;;;;;5.90;97501.00;;;;8304068;28;20288;-75
2023/01/03 08:29:32;;;;;;;10.47;6.60;;;;;5.90;97519.00;;;;8303275;28;20202;-76
2023/01/03 08:34:10;;;;;;;10.43;6.60;;;;;6.00;97513.00;;;;8303423;28;20206;-76
2023/01/03 08:38:25;;;;;;;13.87;7.50;;;;;6.20;97521.00;;;;8303568;28;20222;-76
2023/01/03 08:42:33;;;;;;;9.87;6.50;;;;;6.40;97516.00;;;;8304365;28;20209;-76
2023/01/03 08:46:40;;;;;;;12.67;7.27;;;;;6.60;97519.00;;;;8303417;28;20201;-76
2023/01/03 08:50:47;;;;;;;10.10;6.47;;;;;6.80;97513.00;;;;8303602;28;20702;-76
2023/01/03 08:54:53;;;;;;;13.43;8.57;;;;;6.90;97522.00;;;;8302372;28;20253;-76
2023/01/03 08:59:29;;;;;;;18.67;6.57;;;;;7.00;97531.00;;;;8303137;28;20555;-76
2023/01/03 09:03:34;;;;;;;8.53;6.00;;;;;7.00;97534.00;;;;8302711;28;20320;-76
2023/01/03 09:08:12;;;;;;;14.90;6.73;;;;;7.00;97538.00;;;;8302783;28;20200;-75
2023/01/03 09:12:18;;;;;;;10.73;6.60;;;;;7.10;97542.00;;;;8302615;28;20264;-80
2023/01/03 09:16:53;;;;;;;13.17;7.27;;;;;7.20;97537.00;;;;8301977;28;20255;-80
2023/01/03 09:20:59;;;;;;;8.80;6.07;;;;;7.30;97554.00;;;;8301941;28;20202;-80
2023/01/03 09:25:40;;;;;;;14.17;6.77;;;;;7.30;97552.00;;;;8302357;28;20205;-80
2023/01/03 09:29:43;;;;;;;9.57;6.30;;;;;7.40;97556.00;;;;8302826;28;20202;-80
2023/01/03 09:33:48;;;;;;;15.00;7.93;;;;;7.50;97555.00;;;;8301859;28;20585;-80
2023/01/03 09:38:20;;;;;;;13.30;7.13;;;;;7.80;97566.00;;;;8300649;28;20242;-81
2023/01/03 09:47:25;;;;;;;12.23;7.83;;;;;8.10;97557.00;;;;8301171;28;20635;-80
2023/01/03 10:05:11;;;;;;;10.93;7.23;;;;;8.60;97561.00;;;;8300950;28;20222;-80
2023/01/03 10:09:27;;;;;;;34.60;7.80;;;;;8.80;97557.00;;;;8292851;28;20198;-79
2023/01/03 10:13:41;;;;;;;9.13;7.00;;;;;8.90;97549.00;;;;8298860;28;20640;-80
2023/01/03 10:17:56;;;;;;;12.00;6.90;;;;;9.10;97553.00;;;;8298058;28;20218;-80
2023/01/03 10:22:24;;;;;;;9.38;6.78;;;;;9.20;97534.00;;;;8300405;28;20233;-80
2023/01/03 10:26:32;;;;;;;10.30;7.15;;;;;9.40;97537.00;;;;8301109;28;20210;-80
2023/01/03 10:30:50;;;;;;;7.83;6.40;;;;;9.50;97548.00;;;;8300144;28;20194;-80
2023/01/03 10:35:18;;;;;;;8.97;6.53;;;;;9.60;97538.00;;;;8299105;28;20249;-80
2023/01/03 10:39:29;;;;;;;9.23;6.00;;;;;9.70;97537.00;;;;8299957;28;20257;-80
2023/01/03 10:43:40;;;;;;;8.85;6.03;;;;;9.90;97538.00;;;;8299965;28;20194;-80
2023/01/03 10:47:57;;;;;;;6.35;5.47;;;;;10.00;97541.00;;;;8300174;28;20245;-79
2023/01/03 10:52:23;;;;;;;8.07;5.20;;;;;10.00;97529.00;;;;8296417;28;20249;-79
2023/01/03 10:56:34;;;;;;;5.60;5.00;;;;;10.10;97534.00;;;;8294468;28;20194;-81
2023/01/03 11:00:39;;;;;;;4.90;4.43;;;;;10.30;97533.00;;;;8293352;28;20744;-81
2023/01/03 11:05:04;;;;;;;5.00;4.10;;;;;10.40;97528.00;;;;8295235;28;20746;-81
2023/01/03 11:09:11;;;;;;;5.35;4.30;;;;;10.60;97526.00;;;;8293924;28;20200;-80
2023/01/03 11:13:24;;;;;;;5.10;4.30;;;;;10.70;97529.00;;;;8294136;28;20240;-80
2023/01/03 11:17:58;;;;;;;6.07;4.53;;;;;10.80;97527.00;;;;8294188;28;20240;-77
2023/01/03 11:22:07;;;;;;;7.85;4.28;;;;;10.80;97527.00;;;;8294467;28;20188;-77
2023/01/03 11:26:20;;;;;;;6.15;4.20;;;;;10.90;97524.00;;;;8294411;28;20543;-76
2023/01/03 11:30:30;;;;;;;4.78;3.80;;;;;10.80;97518.00;;;;8294671;28;20645;-77
2023/01/03 11:34:48;;;;;;;4.43;4.03;;;;;10.70;97521.00;;;;8293856;28;20202;-77
2023/01/03 11:39:56;;;;;;;6.78;4.47;;;;;10.70;97524.00;;;;8293969;28;20236;-77
2023/01/03 11:44:35;;;;;;;5.65;4.30;;;;;10.70;97519.00;;;;8300295;28;20198;-77
2023/01/03 11:49:03;;;;;;;5.13;4.40;;;;;10.70;97509.00;;;;8260577;28;20202;-76
2023/01/03 11:53:18;;;;;;;4.88;4.22;;;;;10.70;97500.00;;;;8300549;28;20237;-77
2023/01/03 11:57:34;;;;;;;5.72;4.22;;;;;10.60;97504.00;;;;8299790;28;20232;-77
2023/01/03 12:02:24;;;;;;;5.65;4.40;;;;;10.40;97496.00;;;;8300854;28;20668;-76
2023/01/03 12:06:35;;;;;;;4.60;4.10;;;;;10.40;97499.00;;;;8300008;28;20206;-76
2023/01/03 12:10:48;;;;;;;3.90;3.58;;;;;10.50;97505.00;;;;8300606;28;20185;-76
2023/01/03 12:14:55;;;;;;;4.43;3.55;;;;;10.50;97502.00;;;;8300365;28;20195;-76
2023/01/03 12:19:02;;;;;;;4.38;3.97;;;;;10.50;97510.00;;;;8299126;28;20272;-76
2023/01/03 12:23:23;;;;;;;4.45;3.88;;;;;10.60;97499.00;;;;8299391;28;20190;-76
2023/01/03 12:27:35;;;;;;;5.50;3.88;;;;;10.60;97510.00;;;;8299358;28;20578;-76
2023/01/03 12:31:48;;;;;;;4.78;4.38;;;;;10.70;97495.00;;;;8299575;28;20248;-77
2023/01/03 12:35:57;;;;;;;4.35;3.95;;;;;11.00;97514.00;;;;8298581;28;20192;-77
2023/01/03 12:40:02;;;;;;;4.60;4.18;;;;;11.10;97504.00;;;;8299473;28;20210;-76
2023/01/03 12:44:42;;;;;;;4.15;3.75;;;;;11.20;97510.00;;;;8298305;28;20208;-78
2023/01/03 12:49:05;;;;;;;5.88;4.40;;;;;11.30;97509.00;;;;8298962;28;20205;-78
2023/01/03 12:53:17;;;;;;;4.28;3.70;;;;;11.40;97515.00;;;;8296899;28;20200;-78
2023/01/03 12:57:59;;;;;;;4.10;3.70;;;;;11.50;97504.00;;;;8297603;28;20246;-78
2023/01/03 13:02:21;;;;;;;4.32;3.85;;;;;11.40;97495.00;;;;8267076;28;20634;-78
2023/01/03 13:06:35;;;;;;;4.82;3.65;;;;;11.30;97484.00;;;;8298510;28;20197;-78
2023/01/03 13:10:46;;;;;;;4.55;4.15;;;;;11.20;97484.00;;;;8297710;28;20590;-78
2023/01/03 13:14:56;;;;;;;3.83;3.42;;;;;11.10;97482.00;;;;8297610;28;20693;-78
2023/01/03 13:19:33;;;;;;;3.70;3.40;;;;;11.00;97470.00;;;;8297333;28;20268;-78
2023/01/03 13:24:04;;;;;;;7.25;3.75;;;;;10.90;97474.00;;;;8297285;28;20254;-78
2023/01/03 13:28:30;;;;;;;4.22;3.42;;;;;10.90;97479.00;;;;8296707;28;20199;-78
2023/01/03 13:32:48;;;;;;;4.18;2.60;;;;;11.00;97481.00;;;;8297889;28;20633;-78
2023/01/03 13:37:13;;;;;;;3.40;3.10;;;;;11.30;97481.00;;;;8301897;28;20600;-78
2023/01/03 13:41:34;;;;;;;9.60;3.40;;;;;11.60;97479.00;;;;8301517;28;20222;-78
2023/01/03 13:46:00;;;;;;;6.80;3.50;;;;;11.80;97481.00;;;;8301492;28;20254;-78
2023/01/03 13:50:03;;;;;;;7.75;4.07;;;;;12.00;97490.00;;;;8301410;28;20198;-78
2023/01/03 13:54:28;;;;;;;5.90;3.97;;;;;11.90;97487.00;;;;8300617;28;20190;-78
2023/01/03 13:58:40;;;;;;;7.63;4.07;;;;;11.80;97486.00;;;;8301616;28;20358;-78
2023/01/03 14:03:25;;;;;;;5.55;3.85;;;;;11.80;97483.00;;;;8300608;28;20223;-78
2023/01/03 14:07:50;;;;;;;3.72;3.42;;;;;11.60;97489.00;;;;8301128;28;20231;-78
2023/01/03 14:12:10;;;;;;;3.55;3.22;;;;;11.50;97502.00;;;;8301173;28;20636;-78
2023/01/03 14:16:20;;;;;;;9.23;3.63;;;;;11.50;97502.00;;;;8300537;28;20202;-78
2023/01/03 14:20:32;;;;;;;5.82;3.97;;;;;11.50;97504.00;;;;8300620;28;20257;-78
2023/01/03 14:25:06;;;;;;;3.53;3.22;;;;;11.40;97517.00;;;;8300926;28;20244;-78
2023/01/03 14:29:17;;;;;;;3.33;2.92;;;;;11.40;97499.00;;;;8300274;28;20201;-78
2023/01/03 14:33:23;;;;;;;5.45;3.22;;;;;11.20;97498.00;;;;8300321;28;20579;-78
2023/01/03 14:37:27;;;;;;;4.43;3.03;;;;;11.10;97511.00;;;;8299047;28;20194;-78
2023/01/03 14:41:36;;;;;;;3.83;3.53;;;;;11.00;97510.00;;;;8299851;28;20280;-78
2023/01/03 14:46:11;;;;;;;7.22;4.00;;;;;10.80;97517.00;;;;8299617;28;20198;-78
2023/01/03 14:50:19;;;;;;;6.38;4.65;;;;;10.70;97520.00;;;;8299995;28;20237;-78
2023/01/03 14:54:24;;;;;;;8.75;5.07;;;;;10.60;97518.00;;;;8299935;28;20645;-77
2023/01/03 14:58:33;;;;;;;12.55;6.68;;;;;10.40;97503.00;;;;8298679;28;20190;-76
2023/01/03 15:02:39;;;;;;;55.78;20.17;;;;;10.20;97516.00;;;;8298753;28;20284;-78
2023/01/03 15:07:12;;;;;;;10.20;5.82;;;;;9.70;97512.00;;;;8299867;28;20647;-78
2023/01/03 15:11:23;;;;;;;62.08;24.50;;;;;9.40;97514.00;;;;8299290;28;20666;-78
2023/01/03 15:15:30;;;;;;;17.33;8.02;;;;;9.10;97522.00;;;;8298896;28;20572;-78
2023/01/03 15:19:34;;;;;;;10.57;5.63;;;;;8.80;97520.00;;;;8299001;28;20544;-78
2023/01/03 15:23:42;;;;;;;8.32;4.60;;;;;8.50;97526.00;;;;8298769;28;20194;-78
2023/01/03 15:27:49;;;;;;;8.83;4.47;;;;;8.10;97531.00;;;;8299320;28;20224;-78
2023/01/03 15:31:59;;;;;;;9.27;4.93;;;;;7.70;97534.00;;;;8297049;28;20249;-78
2023/01/03 15:36:05;;;;;;;6.07;4.03;;;;;7.30;97533.00;;;;8298099;28;20201;-78
2023/01/03 15:40:39;;;;;;;7.17;4.30;;;;;6.90;97529.00;;;;8295645;28;20286;-78
2023/01/03 15:44:48;;;;;;;6.93;4.53;;;;;6.60;97531.00;;;;8294311;28;20494;-77
2023/01/03 15:49:23;;;;;;;7.17;4.70;;;;;6.20;97527.00;;;;8292634;28;20252;-77
2023/01/03 15:53:31;;;;;;;8.00;5.57;;;;;6.00;97534.00;;;;8292183;28;20214;-77
2023/01/03 15:58:04;;;;;;;8.37;5.30;;;;;5.70;97534.00;;;;8295378;28;20511;-77
2023/01/03 16:02:16;;;;;;;12.30;6.80;;;;;5.50;97550.00;;;;8296117;28;20253;-77
2023/01/03 16:06:31;;;;;;;8.87;6.07;;;;;5.40;97543.00;;;;8298737;28;20543;-78
2023/01/03 16:11:04;;;;;;;11.40;6.17;;;;;5.30;97547.00;;;;8294882;28;20626;-77
2023/01/03 16:15:42;;;;;;;9.07;6.13;;;;;5.20;97556.00;;;;8298502;28;20194;-77
2023/01/03 16:19:50;;;;;;;11.33;6.60;;;;;5.10;97551.00;;;;8294382;28;20260;-77
2023/01/03 16:23:55;;;;;;;11.37;7.20;;;;;4.90;97540.00;;;;8297754;28;20297;-74
2023/01/03 16:27:59;;;;;;;11.83;6.73;;;;;4.80;97549.00;;;;8301373;28;20186;-77
2023/01/03 16:32:35;;;;;;;11.03;7.13;;;;;4.60;97542.00;;;;8304239;28;20571;-77
2023/01/03 16:36:43;;;;;;;11.40;7.70;;;;;4.50;97556.00;;;;8301539;28;20206;-77
2023/01/03 16:40:51;;;;;;;12.20;7.13;;;;;4.40;97551.00;;;;8303350;28;20225;-77
2023/01/03 16:44:55;;;;;;;12.27;7.63;;;;;4.30;97544.00;;;;8301855;28;20255;-77
2023/01/03 16:48:59;;;;;;;9.10;6.23;;;;;4.20;97552.00;;;;8301817;28;20201;-77
2023/01/03 16:53:06;;;;;;;11.57;6.97;;;;;4.10;97548.00;;;;8301590;28;20251;-77
2023/01/03 16:57:42;;;;;;;13.00;6.67;;;;;4.00;97548.00;;;;8286720;28;20516;-77
2023/01/03 17:01:56;;;;;;;11.20;6.17;;;;;3.90;97554.00;;;;8301901;28;20252;-77
2023/01/03 17:06:01;;;;;;;14.20;8.33;;;;;3.80;97545.00;;;;8303770;28;20295;-77
2023/01/03 17:10:37;;;;;;;21.20;11.27;;;;;3.80;97552.00;;;;8302207;28;20682;-77
2023/01/03 17:14:45;;;;;;;12.50;8.00;;;;;3.70;97553.00;;;;8302511;28;20197;-77
2023/01/03 17:18:49;;;;;;;11.90;7.53;;;;;3.60;97552.00;;;;8302144;28;20241;-78
2023/01/03 17:23:26;;;;;;;13.43;7.80;;;;;3.50;97558.00;;;;8301618;28;20232;-77
2023/01/03 17:27:29;;;;;;;17.33;9.30;;;;;3.50;97566.00;;;;8301065;28;20241;-77
2023/01/03 17:31:37;;;;;;;12.70;7.50;;;;;3.40;97567.00;;;;8300855;28;20202;-77
2023/01/03 17:35:46;;;;;;;16.10;8.63;;;;;3.30;97570.00;;;;8301526;28;20195;-77
2023/01/03 17:40:19;;;;;;;16.23;9.90;;;;;3.20;97575.00;;;;8300984;28;20251;-77
2023/01/03 17:44:22;;;;;;;15.13;9.07;;;;;3.20;97586.00;;;;8301534;28;20639;-77
2023/01/03 17:52:57;;;;;;;21.17;10.63;;;;;3.10;97583.00;;;;8301736;28;20678;-76
2023/01/03 17:57:30;;;;;;;21.60;9.80;;;;;3.00;97578.00;;;;8299511;28;20197;-77
2023/01/03 18:01:44;;;;;;;18.87;9.77;;;;;3.00;97586.00;;;;8296313;28;20222;-75
2023/01/03 18:05:49;;;;;;;19.57;10.27;;;;;2.90;97579.00;;;;8295184;28;20201;-75
2023/01/03 18:09:55;;;;;;;23.43;10.43;;;;;2.80;97590.00;;;;8295560;28;20200;-75
2023/01/03 18:13:58;;;;;;;26.43;11.53;;;;;2.80;97590.00;;;;8294509;28;20193;-76
2023/01/03 18:18:01;;;;;;;19.80;10.57;;;;;2.80;97585.00;;;;8294834;28;20251;-76
2023/01/03 18:22:39;;;;;;;25.77;11.77;;;;;2.80;97593.00;;;;8293754;28;20619;-76
2023/01/03 18:26:47;;;;;;;22.70;11.37;;;;;2.80;97590.00;;;;8295547;28;20535;-77
2023/01/03 18:31:19;;;;;;;23.03;11.23;;;;;2.80;97594.00;;;;8295276;28;20203;-76
2023/01/03 18:35:54;;;;;;;20.53;11.20;;;;;2.70;97593.00;;;;8294749;28;20200;-77
2023/01/03 18:40:31;;;;;;;23.73;12.13;;;;;2.60;97587.00;;;;8295211;28;20194;-77
2023/01/03 18:45:10;;;;;;;23.47;12.30;;;;;2.50;97585.00;;;;8294678;28;20249;-77
2023/01/03 18:49:42;;;;;;;25.03;13.03;;;;;2.40;97582.00;;;;8293558;28;20184;-77
2023/01/03 18:54:24;;;;;;;24.13;12.93;;;;;2.40;97580.00;;;;8294710;28;20259;-78
2023/01/03 18:59:07;;;;;;;28.87;12.37;;;;;2.30;97586.00;;;;8294305;28;20196;-75
2023/01/03 19:03:36;;;;;;;23.37;11.60;;;;;2.30;97573.00;;;;8294122;28;20241;-76
2023/01/03 19:07:43;;;;;;;27.47;13.47;;;;;2.30;97585.00;;;;8293922;28;20197;-76
2023/01/03 19:12:18;;;;;;;25.00;12.70;;;;;2.30;97582.00;;;;8293214;28;20182;-76
2023/01/03 19:16:56;;;;;;;26.00;12.40;;;;;2.20;97581.00;;;;8294063;28;20201;-76
2023/01/03 19:21:31;;;;;;;35.10;17.37;;;;;2.20;97587.00;;;;8291726;28;20223;-76
2023/01/03 19:25:41;;;;;;;36.60;17.27;;;;;2.30;97590.00;;;;8294824;28;20221;-78
2023/01/03 19:30:19;;;;;;;30.03;15.20;;;;;2.30;97583.00;;;;8293714;28;20251;-76
2023/01/03 19:34:56;;;;;;;30.13;12.60;;;;;2.30;97586.00;;;;8293737;28;20203;-76
2023/01/03 19:39:33;;;;;;;35.73;13.07;;;;;2.30;97602.00;;;;8293766;28;20266;-77
2023/01/03 19:44:16;;;;;;;23.37;12.07;;;;;2.20;97591.00;;;;8293994;28;20724;-77
2023/01/03 19:48:45;;;;;;;28.80;13.77;;;;;2.20;97597.00;;;;8297631;28;20614;-77
2023/01/03 19:52:52;;;;;;;32.20;14.87;;;;;2.30;97597.00;;;;8299071;28;20274;-76
2023/01/03 19:57:00;;;;;;;38.93;17.00;;;;;2.30;97587.00;;;;8297281;28;20295;-77
2023/01/03 20:01:05;;;;;;;34.17;17.07;;;;;2.30;97588.00;;;;8299332;28;20219;-77
2023/01/03 20:05:22;;;;;;;33.30;15.93;;;;;2.30;97591.00;;;;8303974;28;20709;-77
2023/01/03 20:09:25;;;;;;;29.50;13.73;;;;;2.20;97592.00;;;;8304900;28;20198;-77
2023/01/03 20:14:03;;;;;;;29.80;14.13;;;;;2.10;97587.00;;;;8305660;28;20547;-77
2023/01/03 20:18:23;;;;;;;35.60;13.33;;;;;2.00;97578.00;;;;8303675;28;20196;-78
2023/01/03 20:22:43;;;;;;;35.77;15.00;;;;;2.00;97584.00;;;;8303527;28;20629;-78
2023/01/03 20:27:06;;;;;;;31.30;13.83;;;;;2.00;97590.00;;;;8300332;28;20206;-78
2023/01/03 20:31:42;;;;;;;28.53;13.80;;;;;1.90;97591.00;;;;8301699;28;20702;-78
2023/01/03 20:36:19;;;;;;;30.67;13.70;;;;;1.80;97586.00;;;;8303360;28;20199;-79
2023/01/03 20:40:27;;;;;;;32.43;14.13;;;;;1.90;97582.00;;;;8297243;28;20214;-80
2023/01/03 20:44:31;;;;;;;65.33;15.67;;;;;1.90;97588.00;;;;8302860;28;20226;-80
2023/01/03 20:48:37;;;;;;;448.07;32.87;;;;;2.00;97587.00;;;;8302885;28;20266;-78
2023/01/03 20:52:40;;;;;;;530.93;36.17;;;;;2.00;97580.00;;;;8303538;28;20578;-80
2023/01/03 20:56:46;;;;;;;473.23;35.63;;;;;2.00;97587.00;;;;8302121;28;20205;-80
2023/01/03 21:01:20;;;;;;;576.53;36.33;;;;;2.00;97583.00;;;;8302860;28;20663;-82
2023/01/03 21:10:23;;;;;;;354.90;29.47;;;;;2.10;97580.00;;;;8302399;28;20199;-81
2023/01/03 21:14:28;;;;;;;332.40;29.07;;;;;2.20;97589.00;;;;8300757;28;20260;-81
2023/01/03 21:19:03;;;;;;;256.87;24.27;;;;;2.20;97586.00;;;;8302900;28;20211;-82
2023/01/03 21:23:07;;;;;;;314.10;28.70;;;;;2.30;97579.00;;;;8300872;28;20224;-83
2023/01/03 21:27:12;;;;;;;266.03;26.40;;;;;2.30;97573.00;;;;8301762;28;20191;-82
2023/01/03 21:31:49;;;;;;;257.70;22.73;;;;;2.20;97581.00;;;;8301547;28;20201;-82
2023/01/03 21:36:29;;;;;;;115.53;18.90;;;;;2.10;97579.00;;;;8298892;28;20247;-81
2023/01/03 21:40:33;;;;;;;178.77;22.00;;;;;2.10;97573.00;;;;8301958;28;20280;-82
2023/01/03 21:44:38;;;;;;;248.97;28.60;;;;;2.10;97575.00;;;;8301254;28;20251;-81
2023/01/03 21:48:43;;;;;;;328.83;27.43;;;;;2.10;97571.00;;;;8301446;28;20199;-81
2023/01/03 21:53:20;;;;;;;289.40;23.63;;;;;1.90;97579.00;;;;8301426;28;20255;-81
2023/01/03 21:57:23;;;;;;;234.20;21.23;;;;;1.80;97569.00;;;;8300451;28;20197;-80
2023/01/03 22:04:13;;;;;;;120.10;19.43;;;;;1.80;97562.00;;;;8300046;28;20377;-79
2023/01/03 22:10:56;;;;;;;83.73;19.20;;;;;1.70;97548.00;;;;8299865;28;20204;-82
2023/01/03 22:14:59;;;;;;;276.33;26.47;;;;;1.70;97543.00;;;;8300253;28;20204;-83
2023/01/03 22:19:02;;;;;;;100.53;18.23;;;;;1.60;97549.00;;;;8298674;28;20241;-83
2023/01/03 22:23:41;;;;;;;122.17;20.30;;;;;1.50;97553.00;;;;8297741;28;20230;-82
2023/01/03 22:27:56;;;;;;;251.70;25.30;;;;;1.40;97553.00;;;;8299278;28;20247;-83
2023/01/03 22:31:59;;;;;;;239.83;22.60;;;;;1.40;97562.00;;;;8300310;28;20207;-84
2023/01/03 22:36:36;;;;;;;147.00;19.80;;;;;1.30;97551.00;;;;8299196;28;20258;-85
2023/01/03 22:40:39;;;;;;;254.97;22.73;;;;;1.40;97546.00;;;;8298259;28;20195;-86
2023/01/03 22:44:44;;;;;;;263.13;24.87;;;;;1.40;97542.00;;;;8299630;28;20284;-87